sensor_id;sensor_type;location;lat;lon;timestamp;temperature;humidity
44305;DHT22;30019;50.576;8.568;2022-12-07T00:01:23;1.60;99.90
44305;DHT22;30019;50.576;8.568;2022-12-07T00:03:51;1.70;99.90
44305;DHT22;30019;50.576;8.568;2022-12-07T00:06:18;1.60;99.90
44305;DHT22;30019;50.576;8.568;2022-12-07T00:08:45;1.70;99.90
44305;DHT22;30019;50.576;8.568;2022-12-07T00:11:13;1.70;99.90
44305;DHT22;30019;50.576;8.568;2022-12-07T00:13:41;1.80;99.90
44305;DHT22;30019;50.576;8.568;2022-12-07T00:16:09;1.80;99.90
44305;DHT22;30019;50.576;8.568;2022-12-07T00:18:36;1.80;99.90
44305;DHT22;30019;50.576;8.568;2022-12-07T00:21:11;1.90;99.90
44305;DHT22;30019;50.576;8.568;2022-12-07T00:23:37;1.90;99.90
44305;DHT22;30019;50.576;8.568;2022-12-07T00:26:12;1.90;99.90
44305;DHT22;30019;50.576;8.568;2022-12-07T00:28:37;1.90;99.90
44305;DHT22;30019;50.576;8.568;2022-12-07T00:31:09;2.00;99.90
44305;DHT22;30019;50.576;8.568;2022-12-07T00:33:35;2.00;99.90
44305;DHT22;30019;50.576;8.568;2022-12-07T00:36:03;2.00;99.90
44305;DHT22;30019;50.576;8.568;2022-12-07T00:38:31;2.10;99.90
44305;DHT22;30019;50.576;8.568;2022-12-07T00:40:58;2.10;99.90
44305;DHT22;30019;50.576;8.568;2022-12-07T00:43:24;2.10;99.90
44305;DHT22;30019;50.576;8.568;2022-12-07T00:45:50;2.10;99.90
44305;DHT22;30019;50.576;8.568;2022-12-07T00:48:16;2.10;99.90
44305;DHT22;30019;50.576;8.568;2022-12-07T00:50:41;2.10;99.90
44305;DHT22;30019;50.576;8.568;2022-12-07T00:53:07;2.20;99.90
44305;DHT22;30019;50.576;8.568;2022-12-07T00:55:33;2.20;99.90
44305;DHT22;30019;50.576;8.568;2022-12-07T00:57:59;2.20;99.90
44305;DHT22;30019;50.576;8.568;2022-12-07T01:00:24;2.20;99.90
44305;DHT22;30019;50.576;8.568;2022-12-07T01:02:50;2.30;99.90
44305;DHT22;30019;50.576;8.568;2022-12-07T01:05:15;2.30;99.90
44305;DHT22;30019;50.576;8.568;2022-12-07T01:07:41;2.40;99.90
44305;DHT22;30019;50.576;8.568;2022-12-07T01:10:07;2.40;99.90
44305;DHT22;30019;50.576;8.568;2022-12-07T01:12:32;2.40;99.90
44305;DHT22;30019;50.576;8.568;2022-12-07T01:14:58;2.40;99.90
44305;DHT22;30019;50.576;8.568;2022-12-07T01:17:23;2.40;99.90
44305;DHT22;30019;50.576;8.568;2022-12-07T01:19:49;2.40;99.90
44305;DHT22;30019;50.576;8.568;2022-12-07T01:22:15;2.40;99.90
44305;DHT22;30019;50.576;8.568;2022-12-07T01:24:40;2.40;99.90
44305;DHT22;30019;50.576;8.568;2022-12-07T01:27:06;2.50;99.90
44305;DHT22;30019;50.576;8.568;2022-12-07T01:29:31;2.50;99.90
44305;DHT22;30019;50.576;8.568;2022-12-07T01:31:57;2.50;99.90
44305;DHT22;30019;50.576;8.568;2022-12-07T01:34:22;2.50;99.90
44305;DHT22;30019;50.576;8.568;2022-12-07T01:36:48;2.50;99.90
44305;DHT22;30019;50.576;8.568;2022-12-07T01:39:13;2.60;99.90
44305;DHT22;30019;50.576;8.568;2022-12-07T01:41:41;2.60;99.90
44305;DHT22;30019;50.576;8.568;2022-12-07T01:44:26;2.60;99.90
44305;DHT22;30019;50.576;8.568;2022-12-07T01:46:57;2.70;99.90
44305;DHT22;30019;50.576;8.568;2022-12-07T01:49:28;2.80;99.90
44305;DHT22;30019;50.576;8.568;2022-12-07T01:52:13;2.80;99.90
44305;DHT22;30019;50.576;8.568;2022-12-07T01:54:40;2.80;99.90
44305;DHT22;30019;50.576;8.568;2022-12-07T01:57:07;2.80;99.90
44305;DHT22;30019;50.576;8.568;2022-12-07T01:59:33;2.80;99.90
44305;DHT22;30019;50.576;8.568;2022-12-07T02:02:02;2.80;99.90
44305;DHT22;30019;50.576;8.568;2022-12-07T02:04:29;2.90;99.90
44305;DHT22;30019;50.576;8.568;2022-12-07T02:06:55;2.80;99.90
44305;DHT22;30019;50.576;8.568;2022-12-07T02:09:23;2.90;99.90
44305;DHT22;30019;50.576;8.568;2022-12-07T02:11:49;2.80;99.90
44305;DHT22;30019;50.576;8.568;2022-12-07T02:14:15;2.90;99.90
44305;DHT22;30019;50.576;8.568;2022-12-07T02:16:52;2.90;99.90
44305;DHT22;30019;50.576;8.568;2022-12-07T02:20:39;2.90;99.90
44305;DHT22;30019;50.576;8.568;2022-12-07T02:25:55;2.80;99.90
44305;DHT22;30019;50.576;8.568;2022-12-07T02:28:31;2.80;99.90
44305;DHT22;30019;50.576;8.568;2022-12-07T02:31:02;2.80;99.90
44305;DHT22;30019;50.576;8.568;2022-12-07T02:33:54;2.80;99.90
44305;DHT22;30019;50.576;8.568;2022-12-07T02:36:30;2.80;99.90
44305;DHT22;30019;50.576;8.568;2022-12-07T02:39:35;2.80;99.90
44305;DHT22;30019;50.576;8.568;2022-12-07T02:42:07;2.80;99.90
44305;DHT22;30019;50.576;8.568;2022-12-07T02:44:35;2.80;99.90
44305;DHT22;30019;50.576;8.568;2022-12-07T02:47:05;2.80;99.90
44305;DHT22;30019;50.576;8.568;2022-12-07T02:49:33;2.80;99.90
44305;DHT22;30019;50.576;8.568;2022-12-07T02:51:59;2.80;99.90
44305;DHT22;30019;50.576;8.568;2022-12-07T02:54:24;2.80;99.90
44305;DHT22;30019;50.576;8.568;2022-12-07T03:02:25;2.80;99.90
44305;DHT22;30019;50.576;8.568;2022-12-07T03:05:13;2.80;99.90
44305;DHT22;30019;50.576;8.568;2022-12-07T03:11:08;2.70;99.90
44305;DHT22;30019;50.576;8.568;2022-12-07T03:16:28;2.80;99.90
44305;DHT22;30019;50.576;8.568;2022-12-07T03:18:59;2.80;99.90
44305;DHT22;30019;50.576;8.568;2022-12-07T03:21:33;2.80;99.90
44305;DHT22;30019;50.576;8.568;2022-12-07T03:24:03;2.80;99.90
44305;DHT22;30019;50.576;8.568;2022-12-07T03:26:36;2.80;99.90
44305;DHT22;30019;50.576;8.568;2022-12-07T03:29:08;2.80;99.90
44305;DHT22;30019;50.576;8.568;2022-12-07T03:31:40;2.80;99.90
44305;DHT22;30019;50.576;8.568;2022-12-07T03:34:31;2.80;99.90
44305;DHT22;30019;50.576;8.568;2022-12-07T03:37:15;2.80;99.90
44305;DHT22;30019;50.576;8.568;2022-12-07T03:40:12;2.80;99.90
44305;DHT22;30019;50.576;8.568;2022-12-07T03:42:39;2.80;99.90
44305;DHT22;30019;50.576;8.568;2022-12-07T03:45:06;2.90;99.90
44305;DHT22;30019;50.576;8.568;2022-12-07T03:50:13;2.90;99.90
44305;DHT22;30019;50.576;8.568;2022-12-07T03:53:45;2.90;99.90
44305;DHT22;30019;50.576;8.568;2022-12-07T03:55:50;2.90;99.90
44305;DHT22;30019;50.576;8.568;2022-12-07T03:58:20;2.90;99.90
44305;DHT22;30019;50.576;8.568;2022-12-07T04:00:48;2.90;99.90
44305;DHT22;30019;50.576;8.568;2022-12-07T04:03:14;2.90;99.90
44305;DHT22;30019;50.576;8.568;2022-12-07T04:05:39;2.90;99.90
44305;DHT22;30019;50.576;8.568;2022-12-07T04:08:05;2.90;99.90
44305;DHT22;30019;50.576;8.568;2022-12-07T04:10:31;2.90;99.90
44305;DHT22;30019;50.576;8.568;2022-12-07T04:12:57;2.90;99.90
44305;DHT22;30019;50.576;8.568;2022-12-07T04:15:22;2.90;99.90
44305;DHT22;30019;50.576;8.568;2022-12-07T04:17:48;2.90;99.90
44305;DHT22;30019;50.576;8.568;2022-12-07T04:20:14;2.90;99.90
44305;DHT22;30019;50.576;8.568;2022-12-07T04:22:39;2.90;99.90
44305;DHT22;30019;50.576;8.568;2022-12-07T04:25:05;3.00;99.90
44305;DHT22;30019;50.576;8.568;2022-12-07T04:27:31;2.90;99.90
44305;DHT22;30019;50.576;8.568;2022-12-07T04:29:57;2.90;99.90
44305;DHT22;30019;50.576;8.568;2022-12-07T04:32:23;2.90;99.90
44305;DHT22;30019;50.576;8.568;2022-12-07T04:34:49;2.80;99.90
44305;DHT22;30019;50.576;8.568;2022-12-07T04:37:14;2.70;99.90
44305;DHT22;30019;50.576;8.568;2022-12-07T04:39:40;2.80;99.90
44305;DHT22;30019;50.576;8.568;2022-12-07T04:42:05;2.80;99.90
44305;DHT22;30019;50.576;8.568;2022-12-07T04:44:31;2.80;99.90
44305;DHT22;30019;50.576;8.568;2022-12-07T04:46:57;2.90;99.90
44305;DHT22;30019;50.576;8.568;2022-12-07T04:49:23;2.90;99.90
44305;DHT22;30019;50.576;8.568;2022-12-07T04:51:49;2.90;99.90
44305;DHT22;30019;50.576;8.568;2022-12-07T04:54:15;2.90;99.90
44305;DHT22;30019;50.576;8.568;2022-12-07T04:56:42;3.00;99.90
44305;DHT22;30019;50.576;8.568;2022-12-07T04:59:09;3.00;99.90
44305;DHT22;30019;50.576;8.568;2022-12-07T05:01:34;3.00;99.90
44305;DHT22;30019;50.576;8.568;2022-12-07T05:04:00;3.00;99.90
44305;DHT22;30019;50.576;8.568;2022-12-07T05:06:26;3.00;99.90
44305;DHT22;30019;50.576;8.568;2022-12-07T05:08:52;3.00;99.90
44305;DHT22;30019;50.576;8.568;2022-12-07T05:11:18;3.00;99.90
44305;DHT22;30019;50.576;8.568;2022-12-07T05:14:18;3.10;99.90
44305;DHT22;30019;50.576;8.568;2022-12-07T05:16:46;3.10;99.90
44305;DHT22;30019;50.576;8.568;2022-12-07T05:19:12;3.10;99.90
44305;DHT22;30019;50.576;8.568;2022-12-07T05:21:39;3.10;99.90
44305;DHT22;30019;50.576;8.568;2022-12-07T05:24:06;3.20;99.90
44305;DHT22;30019;50.576;8.568;2022-12-07T05:26:32;3.20;99.90
44305;DHT22;30019;50.576;8.568;2022-12-07T05:28:58;3.20;99.90
44305;DHT22;30019;50.576;8.568;2022-12-07T05:31:26;3.20;99.90
44305;DHT22;30019;50.576;8.568;2022-12-07T05:33:52;3.20;99.90
44305;DHT22;30019;50.576;8.568;2022-12-07T05:36:18;3.20;99.90
44305;DHT22;30019;50.576;8.568;2022-12-07T05:38:44;3.20;99.90
44305;DHT22;30019;50.576;8.568;2022-12-07T05:41:14;3.20;99.90
44305;DHT22;30019;50.576;8.568;2022-12-07T05:43:58;3.30;99.90
44305;DHT22;30019;50.576;8.568;2022-12-07T05:46:24;3.30;99.90
44305;DHT22;30019;50.576;8.568;2022-12-07T05:48:49;3.30;99.90
44305;DHT22;30019;50.576;8.568;2022-12-07T05:51:15;3.30;99.90
44305;DHT22;30019;50.576;8.568;2022-12-07T05:53:41;3.40;99.90
44305;DHT22;30019;50.576;8.568;2022-12-07T05:56:07;3.40;99.90
44305;DHT22;30019;50.576;8.568;2022-12-07T05:58:32;3.30;99.90
44305;DHT22;30019;50.576;8.568;2022-12-07T06:01:16;3.40;99.90
44305;DHT22;30019;50.576;8.568;2022-12-07T06:03:42;3.40;99.90
44305;DHT22;30019;50.576;8.568;2022-12-07T06:06:07;3.40;99.90
44305;DHT22;30019;50.576;8.568;2022-12-07T06:08:33;3.40;99.90
44305;DHT22;30019;50.576;8.568;2022-12-07T06:10:58;3.40;99.90
44305;DHT22;30019;50.576;8.568;2022-12-07T06:13:42;3.40;99.90
44305;DHT22;30019;50.576;8.568;2022-12-07T06:16:08;3.40;99.90
44305;DHT22;30019;50.576;8.568;2022-12-07T06:18:34;3.40;99.90
44305;DHT22;30019;50.576;8.568;2022-12-07T06:20:59;3.40;99.90
44305;DHT22;30019;50.576;8.568;2022-12-07T06:23:25;3.40;99.90
44305;DHT22;30019;50.576;8.568;2022-12-07T06:25:50;3.40;99.90
44305;DHT22;30019;50.576;8.568;2022-12-07T06:28:16;3.40;99.90
44305;DHT22;30019;50.576;8.568;2022-12-07T06:30:41;3.40;99.90
44305;DHT22;30019;50.576;8.568;2022-12-07T06:33:07;3.40;99.90
44305;DHT22;30019;50.576;8.568;2022-12-07T06:35:33;3.40;99.90
44305;DHT22;30019;50.576;8.568;2022-12-07T06:37:59;3.40;99.90
44305;DHT22;30019;50.576;8.568;2022-12-07T06:40:24;3.30;99.90
44305;DHT22;30019;50.576;8.568;2022-12-07T06:42:50;3.30;99.90
44305;DHT22;30019;50.576;8.568;2022-12-07T06:45:15;3.30;99.90
44305;DHT22;30019;50.576;8.568;2022-12-07T06:47:41;3.30;99.90
44305;DHT22;30019;50.576;8.568;2022-12-07T06:50:07;3.20;99.90
44305;DHT22;30019;50.576;8.568;2022-12-07T06:52:33;3.10;99.90
44305;DHT22;30019;50.576;8.568;2022-12-07T06:54:59;3.10;99.90
44305;DHT22;30019;50.576;8.568;2022-12-07T06:57:25;3.10;99.90
44305;DHT22;30019;50.576;8.568;2022-12-07T06:59:50;2.90;99.90
44305;DHT22;30019;50.576;8.568;2022-12-07T07:02:16;2.80;99.90
44305;DHT22;30019;50.576;8.568;2022-12-07T07:04:42;2.70;99.90
44305;DHT22;30019;50.576;8.568;2022-12-07T07:07:08;2.60;99.90
44305;DHT22;30019;50.576;8.568;2022-12-07T07:09:33;2.60;99.90
44305;DHT22;30019;50.576;8.568;2022-12-07T07:11:59;2.50;99.90
44305;DHT22;30019;50.576;8.568;2022-12-07T07:14:24;2.50;99.90
44305;DHT22;30019;50.576;8.568;2022-12-07T07:16:50;2.50;99.90
44305;DHT22;30019;50.576;8.568;2022-12-07T07:19:16;2.60;99.90
44305;DHT22;30019;50.576;8.568;2022-12-07T07:21:41;2.60;99.90
44305;DHT22;30019;50.576;8.568;2022-12-07T07:24:07;2.60;99.90
44305;DHT22;30019;50.576;8.568;2022-12-07T07:26:33;2.60;99.90
44305;DHT22;30019;50.576;8.568;2022-12-07T07:28:58;2.60;99.90
44305;DHT22;30019;50.576;8.568;2022-12-07T07:31:24;2.60;99.90
44305;DHT22;30019;50.576;8.568;2022-12-07T07:33:49;2.70;99.90
44305;DHT22;30019;50.576;8.568;2022-12-07T07:36:15;2.70;99.90
44305;DHT22;30019;50.576;8.568;2022-12-07T07:38:40;2.70;99.90
44305;DHT22;30019;50.576;8.568;2022-12-07T07:41:06;2.60;99.90
44305;DHT22;30019;50.576;8.568;2022-12-07T07:43:32;2.60;99.90
44305;DHT22;30019;50.576;8.568;2022-12-07T07:45:58;2.50;99.90
44305;DHT22;30019;50.576;8.568;2022-12-07T07:48:23;2.50;99.90
44305;DHT22;30019;50.576;8.568;2022-12-07T07:50:50;2.60;99.90
44305;DHT22;30019;50.576;8.568;2022-12-07T07:53:16;2.70;99.90
44305;DHT22;30019;50.576;8.568;2022-12-07T07:55:49;2.70;99.90
44305;DHT22;30019;50.576;8.568;2022-12-07T07:58:15;2.80;99.90
44305;DHT22;30019;50.576;8.568;2022-12-07T08:00:40;2.80;99.90
44305;DHT22;30019;50.576;8.568;2022-12-07T08:03:06;2.80;99.90
44305;DHT22;30019;50.576;8.568;2022-12-07T08:05:31;2.80;99.90
44305;DHT22;30019;50.576;8.568;2022-12-07T08:07:57;2.80;99.90
44305;DHT22;30019;50.576;8.568;2022-12-07T08:10:23;2.70;99.90
44305;DHT22;30019;50.576;8.568;2022-12-07T08:12:48;2.70;99.90
44305;DHT22;30019;50.576;8.568;2022-12-07T08:15:33;2.60;99.90
44305;DHT22;30019;50.576;8.568;2022-12-07T08:17:58;2.60;99.90
44305;DHT22;30019;50.576;8.568;2022-12-07T08:20:24;2.60;99.90
44305;DHT22;30019;50.576;8.568;2022-12-07T08:22:50;2.60;99.90
44305;DHT22;30019;50.576;8.568;2022-12-07T08:25:15;2.60;99.90
44305;DHT22;30019;50.576;8.568;2022-12-07T08:27:41;2.60;99.90
44305;DHT22;30019;50.576;8.568;2022-12-07T08:30:07;2.70;99.90
44305;DHT22;30019;50.576;8.568;2022-12-07T08:32:34;2.70;99.90
44305;DHT22;30019;50.576;8.568;2022-12-07T08:35:00;2.80;99.90
44305;DHT22;30019;50.576;8.568;2022-12-07T08:37:26;2.80;99.90
44305;DHT22;30019;50.576;8.568;2022-12-07T08:39:51;2.90;99.90
44305;DHT22;30019;50.576;8.568;2022-12-07T08:42:23;2.90;99.90
44305;DHT22;30019;50.576;8.568;2022-12-07T08:44:56;2.90;99.90
44305;DHT22;30019;50.576;8.568;2022-12-07T08:47:23;2.90;99.90
44305;DHT22;30019;50.576;8.568;2022-12-07T08:49:50;2.90;99.90
44305;DHT22;30019;50.576;8.568;2022-12-07T08:52:17;3.00;99.90
44305;DHT22;30019;50.576;8.568;2022-12-07T08:54:43;3.10;99.90
44305;DHT22;30019;50.576;8.568;2022-12-07T08:57:10;3.20;99.90
44305;DHT22;30019;50.576;8.568;2022-12-07T08:59:37;3.20;99.90
44305;DHT22;30019;50.576;8.568;2022-12-07T09:02:04;3.30;99.90
44305;DHT22;30019;50.576;8.568;2022-12-07T09:04:29;3.30;99.90
44305;DHT22;30019;50.576;8.568;2022-12-07T09:06:55;3.40;99.90
44305;DHT22;30019;50.576;8.568;2022-12-07T09:09:21;3.60;99.90
44305;DHT22;30019;50.576;8.568;2022-12-07T09:11:47;3.70;99.90
44305;DHT22;30019;50.576;8.568;2022-12-07T09:14:14;3.80;99.90
44305;DHT22;30019;50.576;8.568;2022-12-07T09:16:41;3.80;99.90
44305;DHT22;30019;50.576;8.568;2022-12-07T09:19:07;3.90;99.90
44305;DHT22;30019;50.576;8.568;2022-12-07T09:21:33;3.90;99.90
44305;DHT22;30019;50.576;8.568;2022-12-07T09:23:59;3.90;99.90
44305;DHT22;30019;50.576;8.568;2022-12-07T09:26:25;4.00;99.90
44305;DHT22;30019;50.576;8.568;2022-12-07T09:28:51;3.90;99.90
44305;DHT22;30019;50.576;8.568;2022-12-07T09:31:16;3.90;99.90
44305;DHT22;30019;50.576;8.568;2022-12-07T09:33:42;4.00;99.90
44305;DHT22;30019;50.576;8.568;2022-12-07T09:36:08;4.00;99.90
44305;DHT22;30019;50.576;8.568;2022-12-07T09:38:35;4.00;99.90
44305;DHT22;30019;50.576;8.568;2022-12-07T09:41:05;4.00;99.90
44305;DHT22;30019;50.576;8.568;2022-12-07T09:43:31;3.80;99.90
44305;DHT22;30019;50.576;8.568;2022-12-07T09:45:57;3.80;99.90
44305;DHT22;30019;50.576;8.568;2022-12-07T09:48:34;4.00;99.90
44305;DHT22;30019;50.576;8.568;2022-12-07T09:51:02;4.20;99.90
44305;DHT22;30019;50.576;8.568;2022-12-07T09:53:37;4.50;99.90
44305;DHT22;30019;50.576;8.568;2022-12-07T09:56:03;4.70;99.90
44305;DHT22;30019;50.576;8.568;2022-12-07T09:58:30;4.80;99.90
44305;DHT22;30019;50.576;8.568;2022-12-07T10:01:20;4.80;99.90
44305;DHT22;30019;50.576;8.568;2022-12-07T10:03:51;4.80;99.90
44305;DHT22;30019;50.576;8.568;2022-12-07T10:06:17;4.70;99.90
44305;DHT22;30019;50.576;8.568;2022-12-07T10:08:43;4.70;99.90
44305;DHT22;30019;50.576;8.568;2022-12-07T10:11:09;4.60;99.90
44305;DHT22;30019;50.576;8.568;2022-12-07T10:13:39;4.60;99.90
44305;DHT22;30019;50.576;8.568;2022-12-07T10:16:06;4.50;99.90
44305;DHT22;30019;50.576;8.568;2022-12-07T10:18:37;4.40;99.90
44305;DHT22;30019;50.576;8.568;2022-12-07T10:29:19;4.50;99.90
44305;DHT22;30019;50.576;8.568;2022-12-07T10:31:51;4.70;99.90
44305;DHT22;30019;50.576;8.568;2022-12-07T10:34:29;4.90;99.90
44305;DHT22;30019;50.576;8.568;2022-12-07T10:39:45;5.30;99.90
44305;DHT22;30019;50.576;8.568;2022-12-07T10:42:26;5.40;99.90
44305;DHT22;30019;50.576;8.568;2022-12-07T10:45:17;5.60;99.90
44305;DHT22;30019;50.576;8.568;2022-12-07T10:48:07;5.70;99.90
44305;DHT22;30019;50.576;8.568;2022-12-07T10:50:41;5.70;99.90
44305;DHT22;30019;50.576;8.568;2022-12-07T10:55:56;5.90;99.90
44305;DHT22;30019;50.576;8.568;2022-12-07T10:58:52;5.90;99.90
44305;DHT22;30019;50.576;8.568;2022-12-07T11:04:30;5.70;99.90
44305;DHT22;30019;50.576;8.568;2022-12-07T11:15:21;5.30;99.90
44305;DHT22;30019;50.576;8.568;2022-12-07T11:20:48;5.60;99.90
44305;DHT22;30019;50.576;8.568;2022-12-07T11:32:32;5.80;99.90
44305;DHT22;30019;50.576;8.568;2022-12-07T11:37:40;5.30;99.90
44305;DHT22;30019;50.576;8.568;2022-12-07T11:40:15;5.30;99.90
44305;DHT22;30019;50.576;8.568;2022-12-07T11:42:49;5.20;99.90
44305;DHT22;30019;50.576;8.568;2022-12-07T11:45:27;5.30;99.90
44305;DHT22;30019;50.576;8.568;2022-12-07T11:48:20;5.30;99.90
44305;DHT22;30019;50.576;8.568;2022-12-07T11:50:54;5.20;99.90
44305;DHT22;30019;50.576;8.568;2022-12-07T11:53:28;5.20;99.90
44305;DHT22;30019;50.576;8.568;2022-12-07T12:04:02;5.60;99.90
44305;DHT22;30019;50.576;8.568;2022-12-07T12:06:30;5.90;99.90
44305;DHT22;30019;50.576;8.568;2022-12-07T12:09:15;5.70;99.90
44305;DHT22;30019;50.576;8.568;2022-12-07T12:11:48;5.70;99.90
44305;DHT22;30019;50.576;8.568;2022-12-07T12:20:14;5.80;99.90
44305;DHT22;30019;50.576;8.568;2022-12-07T12:22:45;5.70;99.90
44305;DHT22;30019;50.576;8.568;2022-12-07T12:25:30;5.70;99.90
44305;DHT22;30019;50.576;8.568;2022-12-07T12:28:15;5.70;99.90
44305;DHT22;30019;50.576;8.568;2022-12-07T12:30:43;5.70;99.90
44305;DHT22;30019;50.576;8.568;2022-12-07T12:33:13;5.70;99.90
44305;DHT22;30019;50.576;8.568;2022-12-07T12:35:40;5.70;99.90
44305;DHT22;30019;50.576;8.568;2022-12-07T12:38:27;5.70;99.90
44305;DHT22;30019;50.576;8.568;2022-12-07T12:40:54;5.60;99.90
44305;DHT22;30019;50.576;8.568;2022-12-07T12:43:40;5.60;99.90
44305;DHT22;30019;50.576;8.568;2022-12-07T12:48:56;5.60;99.90
44305;DHT22;30019;50.576;8.568;2022-12-07T12:51:41;5.50;99.90
44305;DHT22;30019;50.576;8.568;2022-12-07T12:54:26;5.40;99.90
44305;DHT22;30019;50.576;8.568;2022-12-07T12:57:18;5.30;99.90
44305;DHT22;30019;50.576;8.568;2022-12-07T13:02:32;5.20;99.90
44305;DHT22;30019;50.576;8.568;2022-12-07T13:10:34;5.00;99.90
44305;DHT22;30019;50.576;8.568;2022-12-07T13:13:45;5.00;99.90
44305;DHT22;30019;50.576;8.568;2022-12-07T13:16:37;5.10;99.90
44305;DHT22;30019;50.576;8.568;2022-12-07T13:18:38;5.20;99.90
44305;DHT22;30019;50.576;8.568;2022-12-07T13:26:32;5.20;99.90
44305;DHT22;30019;50.576;8.568;2022-12-07T13:31:42;4.90;99.90
44305;DHT22;30019;50.576;8.568;2022-12-07T13:34:34;4.70;99.90
44305;DHT22;30019;50.576;8.568;2022-12-07T13:39:53;4.60;99.90
44305;DHT22;30019;50.576;8.568;2022-12-07T13:42:29;4.50;99.90
44305;DHT22;30019;50.576;8.568;2022-12-07T13:44:56;4.30;99.90
44305;DHT22;30019;50.576;8.568;2022-12-07T13:47:34;4.20;99.90
44305;DHT22;30019;50.576;8.568;2022-12-07T13:50:02;4.10;99.90
44305;DHT22;30019;50.576;8.568;2022-12-07T13:52:45;4.10;99.90
44305;DHT22;30019;50.576;8.568;2022-12-07T13:55:16;4.00;99.90
44305;DHT22;30019;50.576;8.568;2022-12-07T13:57:50;3.90;99.90
44305;DHT22;30019;50.576;8.568;2022-12-07T14:00:21;3.90;99.90
44305;DHT22;30019;50.576;8.568;2022-12-07T14:03:01;4.00;99.90
44305;DHT22;30019;50.576;8.568;2022-12-07T14:05:31;4.00;99.90
44305;DHT22;30019;50.576;8.568;2022-12-07T14:13:44;4.20;99.90
44305;DHT22;30019;50.576;8.568;2022-12-07T14:18:48;4.20;99.90
44305;DHT22;30019;50.576;8.568;2022-12-07T14:21:16;4.30;99.90
44305;DHT22;30019;50.576;8.568;2022-12-07T14:23:43;4.40;99.90
44305;DHT22;30019;50.576;8.568;2022-12-07T14:26:14;4.40;99.90
44305;DHT22;30019;50.576;8.568;2022-12-07T14:28:41;4.40;99.90
44305;DHT22;30019;50.576;8.568;2022-12-07T14:31:18;4.50;99.90
44305;DHT22;30019;50.576;8.568;2022-12-07T14:33:46;4.50;99.90
44305;DHT22;30019;50.576;8.568;2022-12-07T14:36:13;4.50;99.90
44305;DHT22;30019;50.576;8.568;2022-12-07T14:38:39;4.40;99.90
44305;DHT22;30019;50.576;8.568;2022-12-07T14:41:12;4.50;99.90
44305;DHT22;30019;50.576;8.568;2022-12-07T14:43:59;4.50;99.90
44305;DHT22;30019;50.576;8.568;2022-12-07T14:46:25;4.40;99.90
44305;DHT22;30019;50.576;8.568;2022-12-07T14:48:51;4.30;99.90
44305;DHT22;30019;50.576;8.568;2022-12-07T14:51:16;4.30;99.90
44305;DHT22;30019;50.576;8.568;2022-12-07T14:53:48;4.30;99.90
44305;DHT22;30019;50.576;8.568;2022-12-07T14:56:15;4.20;99.90
44305;DHT22;30019;50.576;8.568;2022-12-07T14:58:41;4.20;99.90
44305;DHT22;30019;50.576;8.568;2022-12-07T15:01:07;4.20;99.90
44305;DHT22;30019;50.576;8.568;2022-12-07T15:03:32;4.10;99.90
44305;DHT22;30019;50.576;8.568;2022-12-07T15:06:00;4.10;99.90
44305;DHT22;30019;50.576;8.568;2022-12-07T15:08:26;4.10;99.90
44305;DHT22;30019;50.576;8.568;2022-12-07T15:11:31;4.00;99.90
44305;DHT22;30019;50.576;8.568;2022-12-07T15:13:57;4.00;99.90
44305;DHT22;30019;50.576;8.568;2022-12-07T15:16:37;4.00;99.90
44305;DHT22;30019;50.576;8.568;2022-12-07T15:19:05;4.00;99.90
44305;DHT22;30019;50.576;8.568;2022-12-07T15:21:30;4.00;99.90
44305;DHT22;30019;50.576;8.568;2022-12-07T15:23:56;3.90;99.90
44305;DHT22;30019;50.576;8.568;2022-12-07T15:26:27;3.90;99.90
44305;DHT22;30019;50.576;8.568;2022-12-07T15:28:53;4.00;99.90
44305;DHT22;30019;50.576;8.568;2022-12-07T15:31:19;4.00;99.90
44305;DHT22;30019;50.576;8.568;2022-12-07T15:33:45;4.10;99.90
44305;DHT22;30019;50.576;8.568;2022-12-07T15:36:30;4.10;99.90
44305;DHT22;30019;50.576;8.568;2022-12-07T15:38:56;4.10;99.90
44305;DHT22;30019;50.576;8.568;2022-12-07T15:41:23;4.10;99.90
44305;DHT22;30019;50.576;8.568;2022-12-07T15:43:49;4.10;99.90
44305;DHT22;30019;50.576;8.568;2022-12-07T15:46:34;4.10;99.90
44305;DHT22;30019;50.576;8.568;2022-12-07T15:49:01;4.10;99.90
44305;DHT22;30019;50.576;8.568;2022-12-07T15:51:26;4.10;99.90
44305;DHT22;30019;50.576;8.568;2022-12-07T15:53:53;4.10;99.90
44305;DHT22;30019;50.576;8.568;2022-12-07T15:56:19;4.10;99.90
44305;DHT22;30019;50.576;8.568;2022-12-07T15:58:44;4.10;99.90
44305;DHT22;30019;50.576;8.568;2022-12-07T16:01:15;4.10;99.90
44305;DHT22;30019;50.576;8.568;2022-12-07T16:03:40;4.10;99.90
44305;DHT22;30019;50.576;8.568;2022-12-07T16:06:06;4.10;99.90
44305;DHT22;30019;50.576;8.568;2022-12-07T16:08:32;4.10;99.90
44305;DHT22;30019;50.576;8.568;2022-12-07T16:10:58;4.00;99.90
44305;DHT22;30019;50.576;8.568;2022-12-07T16:13:23;4.00;99.90
44305;DHT22;30019;50.576;8.568;2022-12-07T16:15:49;4.00;99.90
44305;DHT22;30019;50.576;8.568;2022-12-07T16:18:15;4.00;99.90
44305;DHT22;30019;50.576;8.568;2022-12-07T16:20:40;4.00;99.90
44305;DHT22;30019;50.576;8.568;2022-12-07T16:23:06;3.90;99.90
44305;DHT22;30019;50.576;8.568;2022-12-07T16:25:32;3.90;99.90
44305;DHT22;30019;50.576;8.568;2022-12-07T16:27:58;3.80;99.90
44305;DHT22;30019;50.576;8.568;2022-12-07T16:30:24;3.80;99.90
44305;DHT22;30019;50.576;8.568;2022-12-07T16:32:50;3.80;99.90
44305;DHT22;30019;50.576;8.568;2022-12-07T16:35:16;3.80;99.90
44305;DHT22;30019;50.576;8.568;2022-12-07T16:37:42;3.70;99.90
44305;DHT22;30019;50.576;8.568;2022-12-07T16:40:08;3.70;99.90
44305;DHT22;30019;50.576;8.568;2022-12-07T16:42:34;3.70;99.90
44305;DHT22;30019;50.576;8.568;2022-12-07T16:45:01;3.70;99.90
44305;DHT22;30019;50.576;8.568;2022-12-07T16:47:27;3.70;99.90
44305;DHT22;30019;50.576;8.568;2022-12-07T16:49:52;3.70;99.90
44305;DHT22;30019;50.576;8.568;2022-12-07T16:52:19;3.70;99.90
44305;DHT22;30019;50.576;8.568;2022-12-07T16:54:45;3.70;99.90
44305;DHT22;30019;50.576;8.568;2022-12-07T16:57:11;3.60;99.90
44305;DHT22;30019;50.576;8.568;2022-12-07T16:59:37;3.60;99.90
44305;DHT22;30019;50.576;8.568;2022-12-07T17:02:03;3.60;99.90
44305;DHT22;30019;50.576;8.568;2022-12-07T17:04:29;3.60;99.90
44305;DHT22;30019;50.576;8.568;2022-12-07T17:06:56;3.60;99.90
44305;DHT22;30019;50.576;8.568;2022-12-07T17:09:25;3.60;99.90
44305;DHT22;30019;50.576;8.568;2022-12-07T17:11:54;3.60;99.90
44305;DHT22;30019;50.576;8.568;2022-12-07T17:14:22;3.60;99.90
44305;DHT22;30019;50.576;8.568;2022-12-07T17:17:06;3.60;99.90
44305;DHT22;30019;50.576;8.568;2022-12-07T17:19:31;3.60;99.90
44305;DHT22;30019;50.576;8.568;2022-12-07T17:21:57;3.60;99.90
44305;DHT22;30019;50.576;8.568;2022-12-07T17:24:22;3.60;99.90
44305;DHT22;30019;50.576;8.568;2022-12-07T17:26:48;3.50;99.90
44305;DHT22;30019;50.576;8.568;2022-12-07T17:29:15;3.40;99.90
44305;DHT22;30019;50.576;8.568;2022-12-07T17:31:41;3.30;99.90
44305;DHT22;30019;50.576;8.568;2022-12-07T17:34:14;3.20;99.90
44305;DHT22;30019;50.576;8.568;2022-12-07T17:36:40;3.20;99.90
44305;DHT22;30019;50.576;8.568;2022-12-07T17:39:11;3.10;99.90
44305;DHT22;30019;50.576;8.568;2022-12-07T17:41:38;3.00;99.90